Time;durP1;ratioP1;P1;durP2;ratioP2;P2;SDS_P1;SDS_P2;PMS_P1;PMS_P2;Temp;Humidity;BMP_temperature;BMP_pressure;BME280_temperature;BME280_humidity;BME280_pressure;Samples;Min_cycle;Max_cycle;Signal;HPM_P1;HPM_P2
2022/08/03 00:00:23;;;;;;;9.10;1.63;;;;;;;19.43;84.48;101558.19;4768022;29;20056;-73
2022/08/03 00:02:50;;;;;;;3.78;1.33;;;;;;;19.41;84.23;101560.63;4769022;29;20059;-73
2022/08/03 00:05:16;;;;;;;7.72;1.40;;;;;;;19.39;84.87;101560.34;4769405;30;20066;-73
2022/08/03 00:07:43;;;;;;;2.42;1.30;;;;;;;19.33;85.07;101552.94;4768710;30;20052;-73
2022/08/03 00:10:10;;;;;;;6.28;1.80;;;;;;;19.30;85.14;101553.91;4769072;30;20054;-73
2022/08/03 00:12:36;;;;;;;4.13;1.35;;;;;;;19.29;85.43;101562.50;4769312;30;20470;-73
2022/08/03 00:15:03;;;;;;;5.40;1.70;;;;;;;19.27;85.20;101552.16;4769030;30;20059;-75
2022/08/03 00:17:35;;;;;;;6.57;1.30;;;;;;;19.25;84.98;101545.78;4768958;30;20052;-73
2022/08/03 00:20:22;;;;;;;4.55;1.52;;;;;;;19.22;85.46;101552.88;4768890;30;20058;-73
2022/08/03 00:22:50;;;;;;;6.13;1.90;;;;;;;19.21;84.78;101554.09;4769208;30;20044;-74
2022/08/03 00:25:16;;;;;;;3.33;1.38;;;;;;;19.17;85.08;101553.59;4769159;30;20058;-73
2022/08/03 00:27:43;;;;;;;8.57;1.63;;;;;;;19.15;85.58;101552.59;4768577;30;20060;-73
2022/08/03 00:30:10;;;;;;;3.83;1.58;;;;;;;19.13;85.64;101544.97;4768738;30;20048;-73
2022/08/03 00:32:37;;;;;;;10.45;1.67;;;;;;;19.10;85.97;101558.69;4768929;30;20059;-73
2022/08/03 00:35:10;;;;;;;5.43;1.80;;;;;;;19.06;86.46;101548.09;4768289;30;20057;-73
2022/08/03 00:37:57;;;;;;;7.93;1.83;;;;;;;19.06;86.37;101558.91;4768691;30;20090;-72
2022/08/03 00:40:24;;;;;;;3.75;1.63;;;;;;;19.03;85.90;101546.34;4768744;30;20059;-73
2022/08/03 00:42:58;;;;;;;3.10;1.60;;;;;;;18.99;86.93;101556.63;4768820;30;20063;-74
2022/08/03 00:45:27;;;;;;;6.80;1.73;;;;;;;18.94;87.20;101549.97;4767234;29;20055;-72
2022/08/03 00:47:55;;;;;;;2.00;1.27;;;;;;;18.94;86.46;101546.53;4767928;30;20059;-73
2022/08/03 00:50:23;;;;;;;4.47;1.63;;;;;;;18.92;86.61;101548.97;4768092;29;20052;-73
2022/08/03 00:52:55;;;;;;;6.00;1.60;;;;;;;18.91;86.68;101550.91;4768316;30;20059;-73
2022/08/03 00:55:22;;;;;;;4.90;1.50;;;;;;;18.86;87.14;101548.91;4767104;30;20053;-73
2022/08/03 00:57:50;;;;;;;4.18;1.48;;;;;;;18.85;86.86;101547.44;4768692;30;20063;-72
2022/08/03 01:00:22;;;;;;;6.72;2.00;;;;;;;18.83;87.63;101541.75;4768766;30;20052;-73
2022/08/03 01:02:50;;;;;;;10.50;1.80;;;;;;;18.80;88.00;101539.28;4768798;30;20052;-73
2022/08/03 01:05:18;;;;;;;9.15;2.53;;;;;;;18.78;87.62;101542.47;4768103;30;20419;-73
2022/08/03 01:08:05;;;;;;;9.60;1.85;;;;;;;18.76;87.67;101539.53;4768267;30;20556;-73
2022/08/03 01:10:48;;;;;;;3.05;1.80;;;;;;;18.74;88.03;101535.81;4766614;30;20048;-73
2022/08/03 01:13:30;;;;;;;6.72;1.80;;;;;;;18.71;87.66;101536.78;4768178;30;20560;-73
2022/08/03 01:16:36;;;;;;;3.13;1.83;;;;;;;18.65;88.44;101534.00;4768665;30;20583;-73
2022/08/03 01:19:34;;;;;;;7.00;2.00;;;;;;;18.63;88.53;101531.78;4765540;30;20536;-73
2022/08/03 01:22:16;;;;;;;5.35;2.15;;;;;;;18.61;88.98;101539.63;4767994;30;20962;-74
2022/08/03 01:24:56;;;;;;;6.85;1.80;;;;;;;18.60;89.19;101535.44;4768409;30;20131;-73
2022/08/03 01:27:44;;;;;;;3.30;1.70;;;;;;;18.58;88.87;101537.09;4768182;30;20056;-73
2022/08/03 01:30:11;;;;;;;7.38;1.83;;;;;;;18.56;88.80;101537.56;4768333;30;20056;-74
2022/08/03 01:33:02;;;;;;;7.90;2.13;;;;;;;18.56;88.61;101534.88;4767676;30;20048;-74
2022/08/03 01:35:38;;;;;;;3.47;1.85;;;;;;;18.55;89.24;101535.34;4768001;30;20150;-73
2022/08/03 01:38:10;;;;;;;5.38;2.00;;;;;;;18.52;89.85;101536.31;4768000;30;20518;-73
2022/08/03 01:40:39;;;;;;;4.40;2.28;;;;;;;18.49;89.96;101537.25;4768088;30;20048;-74
2022/08/03 01:43:09;;;;;;;5.18;2.03;;;;;;;18.47;90.21;101539.69;4770287;30;20052;-74
2022/08/03 01:45:37;;;;;;;6.40;2.05;;;;;;;18.45;89.86;101531.31;4769850;30;20216;-73
2022/08/03 01:48:06;;;;;;;6.18;2.13;;;;;;;18.42;90.02;101529.56;4770286;30;20052;-73
2022/08/03 01:50:33;;;;;;;10.30;2.10;;;;;;;18.39;90.06;101531.28;4769823;30;20080;-73
2022/08/03 01:53:01;;;;;;;5.53;2.20;;;;;;;18.40;90.67;101521.22;4770697;30;20114;-73
2022/08/03 01:55:30;;;;;;;10.25;2.47;;;;;;;18.39;90.59;101517.06;4771118;30;20052;-73
2022/08/03 01:58:01;;;;;;;8.85;1.98;;;;;;;18.39;90.81;101514.38;4771059;30;20052;-73
2022/08/03 02:00:32;;;;;;;4.38;2.33;;;;;;;18.38;90.61;101510.19;4771320;30;20063;-74
2022/08/03 02:03:00;;;;;;;18.17;2.38;;;;;;;18.34;90.24;101523.88;4754497;30;20048;-73
2022/08/03 02:05:29;;;;;;;4.57;2.50;;;;;;;18.33;90.61;101517.75;4770762;30;20052;-73
2022/08/03 02:07:57;;;;;;;10.13;2.22;;;;;;;18.32;90.93;101520.91;4770790;30;20059;-73
2022/08/03 02:10:25;;;;;;;4.85;2.38;;;;;;;18.28;91.11;101523.81;4770900;30;20052;-73
2022/08/03 02:13:04;;;;;;;4.45;2.58;;;;;;;18.27;91.67;101522.34;4770850;30;20052;-73
2022/08/03 02:15:32;;;;;;;10.52;2.50;;;;;;;18.26;91.46;101523.56;4770880;30;20052;-74
2022/08/03 02:18:01;;;;;;;4.55;2.47;;;;;;;18.25;91.81;101515.94;4769937;30;20560;-74
2022/08/03 02:20:28;;;;;;;8.85;2.30;;;;;;;18.24;91.84;101520.59;4770741;30;20055;-73
2022/08/03 02:22:54;;;;;;;10.25;2.47;;;;;;;18.22;92.30;101524.97;4770678;30;20121;-73
2022/08/03 02:25:21;;;;;;;10.50;2.40;;;;;;;18.20;92.24;101527.41;4770641;30;20415;-73
2022/08/03 02:27:54;;;;;;;5.53;2.72;;;;;;;18.20;92.11;101522.00;4769380;30;20517;-73
2022/08/03 02:30:22;;;;;;;7.05;3.00;;;;;;;18.19;92.38;101515.88;4770923;30;20184;-74
2022/08/03 02:32:56;;;;;;;12.75;2.92;;;;;;;18.20;91.76;101514.66;4770533;30;20052;-74
2022/08/03 02:35:27;;;;;;;5.10;2.50;;;;;;;18.22;92.05;101519.59;4770690;30;20052;-73
2022/08/03 02:37:58;;;;;;;5.05;2.50;;;;;;;18.21;91.78;101512.72;4770648;30;20056;-73
2022/08/03 02:40:27;;;;;;;6.45;2.75;;;;;;;18.20;91.55;101509.28;4770547;30;20059;-74
2022/08/03 02:43:01;;;;;;;9.80;2.38;;;;;;;18.18;91.90;101503.63;4770033;30;20052;-73
2022/08/03 02:45:28;;;;;;;7.45;2.80;;;;;;;18.16;92.24;101508.00;4770027;30;20052;-73
2022/08/03 02:48:00;;;;;;;9.63;2.83;;;;;;;18.14;92.00;101497.69;4769599;30;20048;-73
2022/08/03 02:50:29;;;;;;;8.90;2.88;;;;;;;18.12;91.34;101500.13;4770464;30;20059;-74
2022/08/03 02:52:58;;;;;;;6.75;2.35;;;;;;;18.11;91.47;101498.63;4769436;30;20052;-74
2022/08/03 02:55:27;;;;;;;6.78;2.55;;;;;;;18.09;91.42;101495.69;4769918;30;20056;-73
2022/08/03 02:57:55;;;;;;;8.23;2.70;;;;;;;18.08;91.73;101499.59;4753716;30;20052;-74
2022/08/03 03:00:27;;;;;;;11.48;2.47;;;;;;;18.06;91.14;101491.22;4753593;30;20064;-73
2022/08/03 03:02:59;;;;;;;9.35;2.30;;;;;;;18.05;91.57;101489.75;4770123;30;20056;-73
2022/08/03 03:05:27;;;;;;;25.70;3.00;;;;;;;18.02;91.72;101487.25;4768918;30;20062;-73
2022/08/03 03:08:17;;;;;;;7.32;2.50;;;;;;;17.99;91.92;101486.28;4768622;30;20114;-73
2022/08/03 03:10:52;;;;;;;4.43;2.42;;;;;;;17.97;91.63;101491.41;4770160;30;20509;-74
2022/08/03 03:13:21;;;;;;;12.25;3.17;;;;;;;17.95;91.66;101496.50;4769748;30;20506;-73
2022/08/03 03:15:49;;;;;;;10.23;2.67;;;;;;;17.94;92.23;101492.34;4769819;30;20056;-74
2022/08/03 03:18:17;;;;;;;5.32;3.10;;;;;;;17.94;92.62;101490.38;4770031;30;20154;-73
2022/08/03 03:20:50;;;;;;;6.07;2.58;;;;;;;17.93;92.55;101490.84;4770286;30;20056;-74
2022/08/03 03:23:17;;;;;;;9.40;2.95;;;;;;;17.90;92.43;101492.53;4770134;30;20053;-74
2022/08/03 03:25:44;;;;;;;12.40;3.40;;;;;;;17.91;92.71;101485.19;4769826;30;20052;-74
2022/08/03 03:28:11;;;;;;;12.20;3.45;;;;;;;17.89;92.49;101485.66;4769564;30;20056;-73
2022/08/03 03:30:37;;;;;;;11.20;2.85;;;;;;;17.89;93.13;101485.66;4769367;30;20056;-74
2022/08/03 03:33:04;;;;;;;12.00;3.00;;;;;;;17.89;92.84;101482.22;4769352;30;20106;-73
2022/08/03 03:35:31;;;;;;;5.85;3.10;;;;;;;17.85;93.01;101484.38;4769619;30;20056;-73
2022/08/03 03:38:05;;;;;;;6.03;3.05;;;;;;;17.83;92.95;101484.84;4769649;30;20106;-73
2022/08/03 03:40:34;;;;;;;8.80;2.80;;;;;;;17.81;91.98;101484.59;4769686;30;20048;-73
2022/08/03 03:43:01;;;;;;;17.08;3.13;;;;;;;17.79;92.65;101488.97;4768133;30;20486;-73
2022/08/03 03:45:29;;;;;;;9.35;3.20;;;;;;;17.77;92.66;101488.69;4769087;30;20057;-73
2022/08/03 03:48:04;;;;;;;8.63;3.05;;;;;;;17.77;92.67;101491.38;4769158;30;20560;-73
2022/08/03 03:50:32;;;;;;;12.73;3.00;;;;;;;17.75;92.68;101485.72;4769514;30;20663;-73
2022/08/03 03:52:59;;;;;;;11.32;2.80;;;;;;;17.72;93.36;101487.41;4769391;30;20056;-73
2022/08/03 03:55:26;;;;;;;5.00;2.88;;;;;;;17.73;92.74;101488.16;4769305;30;20052;-73
2022/08/03 03:57:53;;;;;;;11.57;3.50;;;;;;;17.71;93.00;101485.19;4768685;30;20059;-73
2022/08/03 04:00:20;;;;;;;8.77;3.30;;;;;;;17.68;92.88;101486.88;4769182;30;20059;-73
2022/08/03 04:02:46;;;;;;;7.03;2.80;;;;;;;17.67;93.19;101488.06;4769438;30;20089;-73
2022/08/03 04:11:01;;;;;;;5.45;3.08;;;;;;;17.67;92.90;101494.19;4769131;30;20052;-74
2022/08/03 04:13:38;;;;;;;11.50;2.42;;;;;;;17.66;92.30;101492.72;4767211;30;20488;-74
2022/08/03 04:16:09;;;;;;;11.95;3.10;;;;;;;17.66;92.36;101486.59;4769217;30;20059;-73
2022/08/03 04:18:39;;;;;;;14.23;3.03;;;;;;;17.66;92.67;101489.28;4769179;30;20059;-73
2022/08/03 04:21:09;;;;;;;5.78;2.63;;;;;;;17.69;92.62;101493.00;4768919;30;20052;-73
2022/08/03 04:23:40;;;;;;;9.90;3.38;;;;;;;17.67;92.88;101496.91;4768652;30;20130;-73
2022/08/03 04:26:10;;;;;;;10.38;3.35;;;;;;;17.69;92.71;101491.03;4769091;30;20154;-73
2022/08/03 04:28:39;;;;;;;10.82;3.28;;;;;;;17.71;92.69;101498.66;4768704;30;20048;-74
2022/08/03 04:31:07;;;;;;;6.05;2.83;;;;;;;17.72;92.79;101495.47;4768533;30;20053;-73
2022/08/03 04:33:35;;;;;;;13.98;3.35;;;;;;;17.76;93.03;101500.66;4768542;30;20056;-73
2022/08/03 04:36:06;;;;;;;8.07;2.70;;;;;;;17.78;92.65;101499.00;4768638;30;20080;-73
2022/08/03 04:38:42;;;;;;;12.40;2.92;;;;;;;17.81;92.50;101498.06;4768640;30;20907;-74
2022/08/03 04:41:10;;;;;;;9.23;3.00;;;;;;;17.83;92.71;101492.94;4768440;30;20118;-73
2022/08/03 04:43:39;;;;;;;7.60;3.30;;;;;;;17.89;92.01;101503.78;4768752;30;20090;-74
2022/08/03 04:46:07;;;;;;;14.98;3.33;;;;;;;17.94;92.48;101500.41;4768139;30;20054;-73
2022/08/03 04:48:33;;;;;;;11.20;3.00;;;;;;;17.96;91.53;101503.38;4768058;30;21015;-73
2022/08/03 04:51:03;;;;;;;13.70;2.92;;;;;;;17.96;91.83;101509.50;4768588;30;20052;-74
2022/08/03 04:53:30;;;;;;;16.58;3.47;;;;;;;17.99;92.16;101507.81;4768324;30;20053;-74
2022/08/03 04:56:04;;;;;;;5.57;2.97;;;;;;;18.06;91.06;101507.41;4768258;30;20059;-73
2022/08/03 04:58:31;;;;;;;12.43;3.45;;;;;;;18.15;90.79;101506.50;4768121;30;20084;-73
2022/08/03 05:00:58;;;;;;;16.67;3.58;;;;;;;18.24;90.60;101517.91;4768524;30;20126;-73
2022/08/03 05:03:24;;;;;;;11.35;3.20;;;;;;;18.40;89.95;101518.53;4768432;30;20052;-74
2022/08/03 05:05:53;;;;;;;12.23;4.45;;;;;;;18.56;89.21;101515.25;4768493;30;20047;-73
2022/08/03 05:08:34;;;;;;;12.13;3.50;;;;;;;18.93;87.54;101526.91;4768332;30;20064;-74
2022/08/03 05:11:11;;;;;;;12.40;3.10;;;;;;;19.80;84.30;101520.34;4768104;30;20052;-73
2022/08/03 05:13:41;;;;;;;10.65;3.20;;;;;;;20.37;80.81;101524.72;4768186;30;20502;-74
2022/08/03 05:16:08;;;;;;;8.55;3.83;;;;;;;20.10;80.97;101518.00;4767796;30;20048;-74
2022/08/03 05:18:41;;;;;;;7.65;2.70;;;;;;;20.58;79.73;101531.41;4768223;30;20056;-73
2022/08/03 05:21:09;;;;;;;12.32;3.13;;;;;;;21.26;76.31;101530.19;4768154;30;20052;-74
2022/08/03 05:23:36;;;;;;;18.80;3.58;;;;;;;21.17;75.18;101542.00;4768085;30;20052;-73
2022/08/03 05:26:03;;;;;;;13.45;2.92;;;;;;;21.19;75.40;101533.38;4766547;30;20055;-73
2022/08/03 05:28:29;;;;;;;12.30;3.22;;;;;;;21.41;74.86;101538.03;4768082;30;20533;-73
2022/08/03 05:30:56;;;;;;;18.88;3.95;;;;;;;21.73;73.26;101533.75;4768302;30;20048;-74
2022/08/03 05:33:22;;;;;;;11.07;3.33;;;;;;;22.24;71.43;101540.44;4767928;30;20102;-75
2022/08/03 05:35:49;;;;;;;12.55;2.95;;;;;;;22.70;69.53;101535.47;4768142;30;20048;-74
2022/08/03 05:38:30;;;;;;;9.27;3.10;;;;;;;22.66;69.46;101538.47;4767882;30;20058;-74
2022/08/03 05:41:01;;;;;;;;;;;;;;;22.52;70.30;101542.25;4768234;30;20048;-74
2022/08/03 05:43:47;;;;;;;19.02;4.88;;;;;;;22.91;68.69;101542.72;4768671;30;19930;-74
2022/08/03 05:46:14;;;;;;;14.48;3.17;;;;;;;24.71;62.16;101544.06;4767898;30;20079;-74
2022/08/03 05:48:41;;;;;;;23.55;4.50;;;;;;;25.66;58.64;101545.88;4767555;30;20129;-75
2022/08/03 05:51:09;;;;;;;13.15;2.90;;;;;;;25.37;58.89;101538.75;4767816;30;20048;-73
2022/08/03 05:53:38;;;;;;;14.00;4.07;;;;;;;25.62;58.16;101553.59;4767151;30;20044;-72
2022/08/03 05:56:05;;;;;;;14.88;3.10;;;;;;;26.08;56.63;101546.00;4767644;30;20059;-72
2022/08/03 05:58:47;;;;;;;18.13;3.55;;;;;;;26.38;55.97;101538.16;4766417;30;20135;-73
2022/08/03 06:01:15;;;;;;;14.43;3.10;;;;;;;26.52;55.37;101547.75;4767777;30;20059;-72
2022/08/03 06:03:42;;;;;;;8.73;3.10;;;;;;;26.38;55.34;101545.63;4767542;30;20049;-71
2022/08/03 06:06:10;;;;;;;11.88;3.05;;;;;;;26.28;56.01;101539.13;4767614;30;20056;-72
2022/08/03 06:08:37;;;;;;;10.73;3.35;;;;;;;26.32;56.01;101540.28;4767237;30;20147;-72
2022/08/03 06:11:03;;;;;;;9.57;3.47;;;;;;;26.23;55.90;101541.44;4767625;30;20052;-71
2022/08/03 06:13:31;;;;;;;14.70;4.05;;;;;;;26.13;56.92;101543.16;4767207;30;20462;-71
2022/08/03 06:15:57;;;;;;;13.52;3.28;;;;;;;25.75;57.74;101550.16;4767667;30;20052;-71
2022/08/03 06:18:23;;;;;;;15.70;3.40;;;;;;;25.35;58.70;101543.97;4767561;30;20056;-70
2022/08/03 06:20:51;;;;;;;12.73;3.17;;;;;;;24.94;60.48;101540.44;4767439;30;20515;-71
2022/08/03 06:23:18;;;;;;;12.70;3.40;;;;;;;24.60;60.83;101544.97;4767509;30;20064;-71
2022/08/03 06:25:45;;;;;;;9.32;3.45;;;;;;;24.40;61.57;101540.81;4767423;30;20052;-72
2022/08/03 06:28:17;;;;;;;20.02;3.95;;;;;;;24.20;62.79;101549.50;4768432;30;20128;-71
2022/08/03 06:31:04;;;;;;;18.42;3.67;;;;;;;24.14;63.56;101541.41;4768694;30;20511;-72
2022/08/03 06:33:32;;;;;;;10.60;2.88;;;;;;;24.06;64.00;101545.94;4770351;30;20040;-73
2022/08/03 06:36:19;;;;;;;14.70;3.58;;;;;;;23.97;64.05;101545.59;4770592;30;20055;-72
2022/08/03 06:38:45;;;;;;;17.05;2.97;;;;;;;24.08;64.82;101543.47;4770097;30;20505;-73
2022/08/03 06:41:12;;;;;;;15.10;3.22;;;;;;;23.73;64.97;101547.13;4770578;30;20465;-72
2022/08/03 06:43:39;;;;;;;8.75;3.53;;;;;;;23.61;65.55;101545.75;4770310;30;20056;-73
2022/08/03 06:46:25;;;;;;;14.43;2.90;;;;;;;23.71;66.51;101540.72;4770200;30;20060;-73
2022/08/03 06:48:52;;;;;;;20.48;2.95;;;;;;;23.67;66.44;101540.25;4769769;30;20067;-72
2022/08/03 06:51:19;;;;;;;14.10;4.43;;;;;;;23.59;65.99;101542.84;4770466;30;20055;-73
2022/08/03 06:53:45;;;;;;;9.35;2.72;;;;;;;23.67;66.00;101542.97;4769923;30;20466;-72
2022/08/03 06:56:12;;;;;;;15.70;2.95;;;;;;;23.64;66.57;101544.00;4770396;30;20055;-72
2022/08/03 06:58:38;;;;;;;18.73;3.30;;;;;;;23.67;66.34;101540.25;4770195;30;20052;-72
2022/08/03 07:01:05;;;;;;;12.98;3.08;;;;;;;23.61;65.75;101546.50;4770061;30;20114;-72
2022/08/03 07:03:31;;;;;;;13.35;3.90;;;;;;;23.37;67.29;101538.34;4769035;30;20485;-72
2022/08/03 07:05:58;;;;;;;14.63;3.35;;;;;;;23.30;68.07;101552.50;4770127;30;20110;-72
2022/08/03 07:08:25;;;;;;;8.68;3.45;;;;;;;23.29;67.46;101548.31;4769592;30;20060;-71
2022/08/03 07:11:00;;;;;;;12.10;3.20;;;;;;;23.22;67.69;101554.28;4769805;29;20060;-71
2022/08/03 07:13:26;;;;;;;16.08;2.92;;;;;;;23.16;67.89;101557.09;4770095;30;20996;-71
2022/08/03 07:15:53;;;;;;;14.77;3.20;;;;;;;23.16;68.44;101559.78;4769745;30;20110;-72
2022/08/03 07:18:22;;;;;;;21.38;3.80;;;;;;;23.35;69.85;101559.13;4769867;30;20495;-73
2022/08/03 07:20:56;;;;;;;16.75;2.95;;;;;;;23.69;68.09;101557.53;4769398;30;20507;-72
2022/08/03 07:23:24;;;;;;;12.73;3.15;;;;;;;23.81;67.22;101567.03;4769800;30;20509;-72
2022/08/03 07:25:51;;;;;;;11.55;3.20;;;;;;;23.96;66.93;101561.19;4769701;30;20080;-72
2022/08/03 07:28:17;;;;;;;13.27;3.10;;;;;;;23.91;66.00;101570.88;4754032;30;20052;-72
2022/08/03 07:30:44;;;;;;;13.13;3.88;;;;;;;23.87;65.81;101572.41;4769551;30;20531;-72
2022/08/03 07:33:10;;;;;;;9.63;3.05;;;;;;;23.90;66.02;101574.09;4769879;30;20067;-73
2022/08/03 07:35:37;;;;;;;20.75;3.40;;;;;;;23.99;65.52;101581.91;4769178;30;20063;-73
2022/08/03 07:38:04;;;;;;;15.48;3.40;;;;;;;24.19;65.90;101581.41;4768379;30;20052;-73
2022/08/03 07:40:31;;;;;;;11.65;3.60;;;;;;;24.37;64.66;101579.97;4768776;30;20052;-73
2022/08/03 07:42:58;;;;;;;15.18;3.50;;;;;;;24.53;63.51;101572.78;4769237;30;20808;-73
2022/08/03 07:45:25;;;;;;;14.98;3.22;;;;;;;24.55;63.69;101571.03;4769423;30;20052;-73
2022/08/03 07:47:52;;;;;;;15.43;3.10;;;;;;;24.39;63.50;101572.00;4769226;30;20063;-72
2022/08/03 07:50:22;;;;;;;15.98;2.88;;;;;;;24.32;64.75;101569.88;4768764;30;20113;-72
2022/08/03 07:52:51;;;;;;;12.70;3.80;;;;;;;24.56;64.93;101577.19;4769707;30;20080;-72
2022/08/03 07:55:20;;;;;;;12.15;3.33;;;;;;;24.80;63.20;101574.34;4769619;30;20481;-72
2022/08/03 07:57:58;;;;;;;14.18;2.85;;;;;;;24.82;63.81;101566.38;4769463;30;20053;-72
2022/08/03 08:00:25;;;;;;;21.27;3.22;;;;;;;24.91;62.38;101559.81;4769352;30;20450;-73
2022/08/03 08:02:51;;;;;;;13.48;2.97;;;;;;;24.99;61.93;101557.25;4769391;30;20126;-73
2022/08/03 08:05:18;;;;;;;17.58;3.35;;;;;;;25.09;61.99;101563.78;4769014;30;20474;-73
2022/08/03 08:07:44;;;;;;;13.32;3.05;;;;;;;25.31;61.48;101571.53;4752976;30;20056;-73
2022/08/03 08:10:18;;;;;;;11.63;3.28;;;;;;;25.49;61.01;101576.16;4767781;30;20177;-73
2022/08/03 08:12:44;;;;;;;14.75;3.70;;;;;;;25.54;60.53;101575.34;4769002;30;20048;-73
2022/08/03 08:15:11;;;;;;;11.82;3.22;;;;;;;25.75;61.07;101571.97;4767663;30;20565;-73
2022/08/03 08:17:52;;;;;;;14.15;3.05;;;;;;;25.91;60.43;101574.38;4769012;30;20056;-74
2022/08/03 08:20:20;;;;;;;;;;;;;;;25.94;62.02;101578.03;4767799;30;20451;-73
2022/08/03 08:23:04;;;;;;;13.85;2.97;;;;;;;25.94;59.36;101569.88;4769120;30;19929;-71
2022/08/03 08:25:51;;;;;;;11.80;3.03;;;;;;;25.93;59.11;101571.13;4768777;30;20052;-72
2022/08/03 08:28:19;;;;;;;21.30;3.55;;;;;;;25.87;58.22;101575.97;4767779;30;20055;-72
2022/08/03 08:30:57;;;;;;;23.27;3.45;;;;;;;26.10;58.32;101576.94;4768677;30;20558;-72
2022/08/03 08:33:24;;;;;;;15.57;3.25;;;;;;;26.21;57.78;101570.53;4767035;30;20048;-72
2022/08/03 08:35:52;;;;;;;16.33;3.20;;;;;;;26.43;57.99;101572.75;4767453;30;20419;-72
2022/08/03 08:38:19;;;;;;;18.70;3.13;;;;;;;26.65;57.26;101577.00;4768785;30;20392;-73
2022/08/03 08:40:47;;;;;;;17.98;3.35;;;;;;;26.73;56.59;101577.06;4768767;29;20052;-72
2022/08/03 08:43:14;;;;;;;17.25;3.10;;;;;;;26.91;56.43;101582.31;4768491;30;20052;-72
2022/08/03 08:45:41;;;;;;;13.98;3.63;;;;;;;27.08;54.06;101581.19;4768395;30;20136;-72
2022/08/03 08:48:09;;;;;;;17.63;3.00;;;;;;;27.10;54.14;101584.13;4767758;30;20056;-72
2022/08/03 08:50:37;;;;;;;19.83;3.60;;;;;;;27.22;55.04;101577.81;4768483;30;20051;-72
2022/08/03 08:53:06;;;;;;;20.13;4.43;;;;;;;27.20;54.23;101588.53;4768542;30;20063;-71
2022/08/03 08:55:37;;;;;;;18.25;3.60;;;;;;;27.33;53.78;101595.94;4768594;30;20059;-73
2022/08/03 08:58:27;;;;;;;28.10;4.28;;;;;;;27.36;52.65;101583.19;4768030;30;20048;-75
2022/08/03 09:00:54;;;;;;;24.20;4.70;;;;;;;27.48;52.97;101587.81;4768253;30;20537;-74
2022/08/03 09:03:20;;;;;;;19.33;4.63;;;;;;;27.51;53.21;101586.75;4767844;30;20044;-74
2022/08/03 09:05:58;;;;;;;16.50;3.60;;;;;;;27.53;52.33;101578.75;4768345;30;20056;-75
2022/08/03 09:08:25;;;;;;;16.83;3.75;;;;;;;27.56;52.69;101574.94;4767593;29;20053;-74
2022/08/03 09:10:51;;;;;;;17.88;4.05;;;;;;;27.58;52.35;101579.88;4768342;30;20060;-74
2022/08/03 09:13:18;;;;;;;19.00;3.33;;;;;;;27.63;51.88;101581.72;4768546;30;20052;-75
2022/08/03 09:15:45;;;;;;;15.85;4.00;;;;;;;27.64;53.43;101587.91;4768269;30;20045;-75
2022/08/03 09:18:30;;;;;;;19.80;3.40;;;;;;;27.96;52.82;101577.31;4766492;30;20056;-74
2022/08/03 09:21:34;;;;;;;26.95;4.20;;;;;;;28.05;52.41;101581.53;4768030;30;20131;-74
2022/08/03 09:24:02;;;;;;;21.15;3.78;;;;;;;28.05;51.63;101582.25;4712899;30;20203;-75
2022/08/03 09:26:36;;;;;;;23.80;3.70;;;;;;;27.98;51.63;101580.25;4713258;30;20062;-74
2022/08/03 09:29:09;;;;;;;18.92;4.57;;;;;;;27.93;51.12;101574.94;4713081;30;20061;-75
2022/08/03 09:31:45;;;;;;;19.77;3.10;;;;;;;27.82;52.50;101584.91;4712543;30;20076;-74
2022/08/03 09:34:14;;;;;;;15.77;3.30;;;;;;;27.87;52.43;101577.81;4712996;30;20061;-74
2022/08/03 09:36:49;;;;;;;18.95;3.47;;;;;;;28.00;50.99;101574.94;4712903;30;20084;-75
2022/08/03 09:39:18;;;;;;;20.02;3.78;;;;;;;28.21;50.40;101572.13;4698093;30;20054;-74
2022/08/03 09:41:47;;;;;;;18.15;3.10;;;;;;;28.29;49.98;101575.59;4712520;30;20057;-74
2022/08/03 09:44:14;;;;;;;18.30;3.65;;;;;;;28.46;49.99;101580.53;4712537;30;20050;-72
2022/08/03 09:46:55;;;;;;;14.25;3.33;;;;;;;28.64;49.57;101578.75;4712502;30;20093;-74
2022/08/03 09:49:23;;;;;;;11.48;3.00;;;;;;;28.67;49.68;101583.88;4712534;30;20153;-74
2022/08/03 09:51:50;;;;;;;32.58;4.00;;;;;;;28.76;49.44;101575.13;4712533;30;20563;-74
2022/08/03 09:54:37;;;;;;;14.95;3.72;;;;;;;28.65;48.33;101574.75;4712952;30;20590;-74
2022/08/03 09:57:03;;;;;;;18.08;3.10;;;;;;;28.67;49.04;101570.19;4717446;30;20056;-74
2022/08/03 09:59:31;;;;;;;19.55;3.58;;;;;;;28.75;48.99;101572.91;4767690;30;20048;-74
2022/08/03 10:01:59;;;;;;;20.83;3.15;;;;;;;29.01;48.51;101567.06;4767241;30;20514;-76
2022/08/03 10:04:26;;;;;;;10.50;2.75;;;;;;;29.13;48.70;101572.91;4754374;30;20056;-76
2022/08/03 10:07:08;;;;;;;19.80;3.38;;;;;;;29.24;48.64;101572.50;4770575;30;20048;-79
2022/08/03 10:09:35;;;;;;;15.77;3.05;;;;;;;29.35;48.08;101574.13;4754485;30;20060;-76
2022/08/03 10:12:12;;;;;;;17.48;3.30;;;;;;;29.50;47.21;101579.63;4770802;30;20063;-75
2022/08/03 10:14:44;;;;;;;14.40;2.92;;;;;;;29.50;46.43;101580.34;4754363;30;20485;-73
2022/08/03 10:17:10;;;;;;;18.05;3.10;;;;;;;29.67;48.38;101581.75;4770382;30;20117;-71
2022/08/03 10:19:37;;;;;;;20.70;3.60;;;;;;;29.68;47.25;101586.69;4770643;30;20172;-72
2022/08/03 10:22:13;;;;;;;12.50;3.10;;;;;;;29.90;47.53;101582.41;4770214;30;20060;-74
2022/08/03 10:24:48;;;;;;;23.30;3.53;;;;;;;30.14;47.50;101576.25;4770628;30;20392;-76
2022/08/03 10:27:16;;;;;;;14.70;3.53;;;;;;;30.25;46.92;101579.84;4770847;30;20052;-73
2022/08/03 10:29:49;;;;;;;27.98;4.10;;;;;;;30.24;45.64;101581.88;4769792;30;20063;-73
2022/08/03 10:32:29;;;;;;;12.05;3.28;;;;;;;30.37;45.96;101580.88;4769586;30;20048;-73
2022/08/03 10:35:09;;;;;;;16.58;2.40;;;;;;;30.47;44.47;101576.22;4770503;30;20059;-73
2022/08/03 10:37:58;;;;;;;16.52;3.03;;;;;;;30.57;44.91;101581.84;4756295;30;20114;-73
2022/08/03 10:40:32;;;;;;;15.13;3.42;;;;;;;30.63;42.61;101579.59;4770103;30;20053;-74
2022/08/03 10:43:37;;;;;;;14.93;3.40;;;;;;;30.70;44.75;101576.06;4770629;30;20109;-73
2022/08/03 10:46:07;;;;;;;15.90;2.83;;;;;;;30.85;44.25;101573.91;4762910;30;20130;-74
2022/08/03 10:48:35;;;;;;;14.23;2.83;;;;;;;31.02;42.53;101569.75;4768003;29;20574;-75
2022/08/03 10:51:03;;;;;;;17.55;2.70;;;;;;;30.89;42.25;101573.50;4768770;30;20060;-74
2022/08/03 10:53:36;;;;;;;7.35;2.67;;;;;;;30.74;42.07;101568.16;4769904;30;20059;-74
2022/08/03 10:59:08;;;;;;;11.38;2.78;;;;;;;30.65;41.85;101560.53;4769555;30;20060;-74
2022/08/03 11:01:49;;;;;;;14.20;4.05;;;;;;;30.93;42.48;101562.84;4769946;30;20878;-74
2022/08/03 11:04:28;;;;;;;11.48;2.72;;;;;;;31.00;41.50;101564.06;4769932;30;20052;-75
2022/08/03 11:07:16;;;;;;;15.55;3.17;;;;;;;31.08;41.83;101562.72;4769942;30;20052;-77
2022/08/03 11:09:46;;;;;;;12.57;2.95;;;;;;;30.85;40.44;101554.66;4769048;30;20056;-77
2022/08/03 11:12:27;;;;;;;10.95;2.72;;;;;;;31.05;41.14;101555.59;4784942;24;20139;-80
2022/08/03 11:15:31;;;;;;;14.13;2.78;;;;;;;31.03;42.18;101557.44;4803064;29;20051;-78
2022/08/03 11:18:24;;;;;;;14.02;2.67;;;;;;;31.42;41.62;101556.50;4806190;29;20062;-78
2022/08/03 11:20:57;;;;;;;11.80;3.63;;;;;;;31.55;40.49;101557.47;4803077;29;20406;-79
2022/08/03 11:23:45;;;;;;;6.93;2.90;;;;;;;31.68;40.60;101548.88;4804710;29;20051;-81
2022/08/03 11:26:32;;;;;;;13.70;2.65;;;;;;;31.52;38.35;101553.81;4804647;29;20063;-79
2022/08/03 11:29:28;;;;;;;10.52;2.58;;;;;;;31.53;39.90;101555.28;4805034;29;20054;-79
2022/08/03 11:31:54;;;;;;;8.27;2.38;;;;;;;31.29;39.05;101556.09;4815582;29;20051;-80
2022/08/03 11:34:21;;;;;;;12.57;2.70;;;;;;;31.33;38.14;101551.66;4805560;29;20074;-79
2022/08/03 11:37:20;;;;;;;20.25;3.22;;;;;;;31.57;39.30;101557.63;4805928;29;20501;-79
2022/08/03 11:39:50;;;;;;;17.13;3.13;;;;;;;31.54;40.69;101551.25;4805705;29;20141;-79
2022/08/03 11:42:22;;;;;;;12.38;2.75;;;;;;;31.63;39.32;101547.81;4805297;29;20047;-79
2022/08/03 11:44:50;;;;;;;14.63;2.58;;;;;;;31.65;39.01;101545.22;4805072;29;20051;-80
2022/08/03 11:47:18;;;;;;;13.93;3.33;;;;;;;31.70;39.07;101549.03;4804493;29;20056;-80